createdAt,value
2022-09-09T00:00:07.537Z,99475.00
2022-09-09T00:00:18.290Z,99472.00
2022-09-09T00:00:30.070Z,99476.00
2022-09-09T00:00:42.537Z,99473.00
2022-09-09T00:00:54.379Z,99476.00
2022-09-09T00:01:06.858Z,99473.00
2022-09-09T00:01:17.682Z,99469.00
2022-09-09T00:01:28.509Z,99474.00
2022-09-09T00:01:39.318Z,99472.00
2022-09-09T00:01:52.549Z,99476.00
2022-09-09T00:02:04.274Z,99472.00
2022-09-09T00:02:16.390Z,99477.00
2022-09-09T00:02:27.345Z,99473.00
2022-09-09T00:02:39.929Z,99474.00
2022-09-09T00:02:52.511Z,99472.00
2022-09-09T00:03:05.379Z,99474.00
2022-09-09T00:03:16.321Z,99471.00
2022-09-09T00:03:29.681Z,99471.00
2022-09-09T00:03:42.530Z,99471.00
2022-09-09T00:03:53.388Z,99470.00
2022-09-09T00:04:05.109Z,99469.00
2022-09-09T00:04:15.858Z,99469.00
2022-09-09T00:04:26.640Z,99473.00
2022-09-09T00:04:37.412Z,99469.00
2022-09-09T00:04:48.179Z,99469.00
2022-09-09T00:04:58.989Z,99470.00
2022-09-09T00:05:11.179Z,99470.00
2022-09-09T00:05:22.869Z,99467.00
2022-09-09T00:05:34.619Z,99466.00
2022-09-09T00:05:45.380Z,99468.00
2022-09-09T00:05:57.186Z,99463.00
2022-09-09T00:06:07.919Z,99465.00
2022-09-09T00:06:19.632Z,99468.00
2022-09-09T00:06:32.339Z,99466.00
2022-09-09T00:06:44.061Z,99465.00
2022-09-09T00:06:57.541Z,99462.00
2022-09-09T00:07:08.279Z,99461.00
2022-09-09T00:07:20.021Z,99462.00
2022-09-09T00:07:31.769Z,99462.00
2022-09-09T00:07:43.510Z,99462.00
2022-09-09T00:07:55.260Z,99462.00
2022-09-09T00:08:07.034Z,99460.00
2022-09-09T00:08:18.763Z,99460.00
2022-09-09T00:08:30.530Z,99461.00
2022-09-09T00:08:42.951Z,99457.00
2022-09-09T00:08:54.693Z,99462.00
2022-09-09T00:09:07.141Z,99461.00
2022-09-09T00:09:17.890Z,99458.00
2022-09-09T00:09:29.662Z,99458.00
2022-09-09T00:09:41.411Z,99461.00
2022-09-09T00:09:52.189Z,99462.00
2022-09-09T00:10:03.020Z,99460.00
2022-09-09T00:10:13.821Z,99462.00
2022-09-09T00:10:24.564Z,99461.00
2022-09-09T00:10:36.284Z,99459.00
2022-09-09T00:10:48.471Z,99461.00
2022-09-09T00:10:59.241Z,99458.00
2022-09-09T00:11:10.059Z,99461.00
2022-09-09T00:11:20.810Z,99454.00
2022-09-09T00:11:31.715Z,99455.00
2022-09-09T00:11:43.452Z,99454.00
2022-09-09T00:11:54.220Z,99456.00
2022-09-09T00:12:05.901Z,99457.00
2022-09-09T00:12:17.682Z,99455.00
2022-09-09T00:12:29.374Z,99452.00
2022-09-09T00:12:40.153Z,99454.00
2022-09-09T00:12:50.892Z,99453.00
2022-09-09T00:13:02.682Z,99454.00
2022-09-09T00:13:15.116Z,99452.00
2022-09-09T00:13:25.862Z,99457.00
2022-09-09T00:13:36.645Z,99454.00
2022-09-09T00:13:49.062Z,99453.00
2022-09-09T00:14:01.303Z,99455.00
2022-09-09T00:14:12.072Z,99453.00
2022-09-09T00:14:24.550Z,99456.00
2022-09-09T00:14:35.322Z,99453.00
2022-09-09T00:14:46.072Z,99453.00
2022-09-09T00:14:56.823Z,99453.00
2022-09-09T00:15:07.603Z,99450.00
2022-09-09T00:15:18.374Z,99452.00
2022-09-09T00:15:29.202Z,99454.00
2022-09-09T00:15:40.978Z,99456.00
2022-09-09T00:15:51.765Z,99454.00
2022-09-09T00:16:03.506Z,99456.00
2022-09-09T00:16:14.306Z,99451.00
2022-09-09T00:16:25.215Z,99454.00
2022-09-09T00:16:35.994Z,99455.00
2022-09-09T00:16:49.194Z,99451.00
2022-09-09T00:16:59.994Z,99457.00
2022-09-09T00:17:10.824Z,99455.00
2022-09-09T00:17:21.614Z,99455.00
2022-09-09T00:17:32.376Z,99451.00
2022-09-09T00:17:43.132Z,99452.00
2022-09-09T00:17:56.349Z,99456.00
2022-09-09T00:18:07.153Z,99451.00
2022-09-09T00:18:17.936Z,99450.00
2022-09-09T00:18:28.756Z,99450.00
2022-09-09T00:18:41.195Z,99450.00
2022-09-09T00:18:53.644Z,99449.00
2022-09-09T00:19:05.434Z,99452.00
2022-09-09T00:19:18.375Z,99453.00
2022-09-09T00:19:29.123Z,99451.00
2022-09-09T00:19:39.854Z,99450.00
2022-09-09T00:19:50.635Z,99448.00
2022-09-09T00:20:01.432Z,99447.00
2022-09-09T00:20:12.224Z,99444.00
2022-09-09T00:20:23.014Z,99449.00
2022-09-09T00:20:33.819Z,99450.00
2022-09-09T00:20:44.573Z,99448.00
2022-09-09T00:20:56.256Z,99447.00
2022-09-09T00:21:07.085Z,99446.00
2022-09-09T00:21:17.816Z,99448.00
2022-09-09T00:21:29.608Z,99449.00
2022-09-09T00:21:40.365Z,99449.00
2022-09-09T00:21:53.116Z,99446.00
2022-09-09T00:22:03.925Z,99446.00
2022-09-09T00:22:14.706Z,99446.00
2022-09-09T00:22:25.452Z,99445.00
2022-09-09T00:22:36.184Z,99447.00
2022-09-09T00:22:48.406Z,99447.00
2022-09-09T00:22:59.158Z,99446.00
2022-09-09T00:23:11.628Z,99447.00
2022-09-09T00:23:23.350Z,99445.00
2022-09-09T00:23:34.085Z,99446.00
2022-09-09T00:23:44.846Z,99446.00
2022-09-09T00:23:57.045Z,99447.00
2022-09-09T00:24:11.245Z,99446.00
2022-09-09T00:24:23.697Z,99445.00
2022-09-09T00:24:34.477Z,99447.00
2022-09-09T00:24:46.946Z,99450.00
2022-09-09T00:24:57.687Z,99448.00
2022-09-09T00:25:09.497Z,99444.00
2022-09-09T00:25:20.257Z,99447.00
2022-09-09T00:25:30.996Z,99447.00
2022-09-09T00:25:44.196Z,99445.00
2022-09-09T00:25:55.907Z,99443.00
2022-09-09T00:26:08.630Z,99447.00
2022-09-09T00:26:19.381Z,99448.00
2022-09-09T00:26:32.631Z,99447.00
2022-09-09T00:26:44.337Z,99447.00
2022-09-09T00:26:55.078Z,99449.00
2022-09-09T00:27:06.805Z,99449.00
2022-09-09T00:27:17.637Z,99444.00
2022-09-09T00:27:29.327Z,99447.00
2022-09-09T00:27:41.800Z,99446.00
2022-09-09T00:27:54.249Z,99448.00
2022-09-09T00:28:07.688Z,99453.00
2022-09-09T00:28:20.430Z,99451.00
2022-09-09T00:28:32.697Z,99452.00
2022-09-09T00:28:43.511Z,99452.00
2022-09-09T00:28:54.257Z,99452.00
2022-09-09T00:29:06.008Z,99454.00
2022-09-09T00:29:18.720Z,99454.00
2022-09-09T00:29:30.210Z,99454.00
2022-09-09T00:29:40.968Z,99452.00
2022-09-09T00:29:52.662Z,99453.00
2022-09-09T00:30:04.868Z,99454.00
2022-09-09T00:30:15.615Z,99453.00
2022-09-09T00:30:26.367Z,99454.00
2022-09-09T00:30:38.619Z,99452.00
2022-09-09T00:30:49.429Z,99450.00
2022-09-09T00:31:01.188Z,99446.00
2022-09-09T00:31:14.228Z,99448.00
2022-09-09T00:31:25.023Z,99448.00
2022-09-09T00:31:37.479Z,99447.00
2022-09-09T00:31:48.249Z,99450.00
2022-09-09T00:31:59.029Z,99452.00
2022-09-09T00:32:10.837Z,99447.00
2022-09-09T00:32:23.314Z,99450.00
2022-09-09T00:32:35.029Z,99445.00
2022-09-09T00:32:45.798Z,99444.00
2022-09-09T00:32:56.570Z,99450.00
2022-09-09T00:33:12.021Z,99449.00
2022-09-09T00:33:26.339Z,99448.00
2022-09-09T00:33:37.118Z,99447.00
2022-09-09T00:33:47.892Z,99451.00
2022-09-09T00:33:58.640Z,99449.00
2022-09-09T00:34:11.900Z,99451.00
2022-09-09T00:34:23.590Z,99447.00
2022-09-09T00:34:35.313Z,99449.00
2022-09-09T00:34:48.229Z,99448.00
2022-09-09T00:34:59.968Z,99446.00
2022-09-09T00:35:10.741Z,99449.00
2022-09-09T00:35:21.499Z,99448.00
2022-09-09T00:35:32.256Z,99447.00
2022-09-09T00:35:42.999Z,99452.00
2022-09-09T00:35:55.430Z,99452.00
2022-09-09T00:36:07.151Z,99450.00
2022-09-09T00:36:17.910Z,99447.00
2022-09-09T00:36:29.610Z,99449.00
2022-09-09T00:36:41.322Z,99447.00
2022-09-09T00:36:52.109Z,99447.00
2022-09-09T00:37:02.852Z,99452.00
2022-09-09T00:37:14.560Z,99450.00
2022-09-09T00:37:25.329Z,99449.00
2022-09-09T00:37:36.135Z,99446.00
2022-09-09T00:37:46.861Z,99450.00
2022-09-09T00:37:59.301Z,99448.00
2022-09-09T00:38:11.752Z,99450.00
2022-09-09T00:38:22.501Z,99448.00
2022-09-09T00:38:34.575Z,99448.00
2022-09-09T00:38:47.992Z,99450.00
2022-09-09T00:38:58.740Z,99448.00
2022-09-09T00:39:10.442Z,99452.00
2022-09-09T00:39:21.182Z,99450.00
2022-09-09T00:39:32.979Z,99444.00
2022-09-09T00:39:43.784Z,99446.00
2022-09-09T00:39:54.597Z,99444.00
2022-09-09T00:40:07.047Z,99443.00
2022-09-09T00:40:18.768Z,99445.00
2022-09-09T00:40:31.209Z,99443.00
2022-09-09T00:40:41.976Z,99444.00
2022-09-09T00:40:52.731Z,99441.00
2022-09-09T00:41:03.463Z,99443.00
2022-09-09T00:41:15.913Z,99437.00
2022-09-09T00:41:26.682Z,99438.00
2022-09-09T00:41:37.422Z,99439.00
2022-09-09T00:41:48.152Z,99439.00
2022-09-09T00:41:58.903Z,99439.00
2022-09-09T00:42:11.346Z,99437.00
2022-09-09T00:42:23.782Z,99439.00
2022-09-09T00:42:35.510Z,99440.00
2022-09-09T00:42:47.732Z,99439.00
2022-09-09T00:42:58.512Z,99443.00
2022-09-09T00:43:11.243Z,99442.00
2022-09-09T00:43:22.964Z,99442.00
2022-09-09T00:43:34.681Z,99443.00
2022-09-09T00:43:45.422Z,99444.00
2022-09-09T00:43:56.222Z,99444.00
2022-09-09T00:44:07.942Z,99443.00
2022-09-09T00:44:19.433Z,99441.00
2022-09-09T00:44:30.174Z,99440.00
2022-09-09T00:44:40.913Z,99442.00
2022-09-09T00:44:54.113Z,99440.00
2022-09-09T00:45:06.564Z,99443.00
2022-09-09T00:45:19.802Z,99443.00
2022-09-09T00:45:30.542Z,99445.00
2022-09-09T00:45:41.363Z,99447.00
2022-09-09T00:45:52.153Z,99442.00
2022-09-09T00:46:03.861Z,99447.00
2022-09-09T00:46:15.639Z,99445.00
2022-09-09T00:46:26.519Z,99441.00
2022-09-09T00:46:37.321Z,99441.00
2022-09-09T00:46:49.764Z,99439.00
2022-09-09T00:47:02.250Z,99441.00
2022-09-09T00:47:13.002Z,99446.00
2022-09-09T00:47:25.415Z,99439.00
2022-09-09T00:47:36.146Z,99439.00
2022-09-09T00:47:48.585Z,99441.00
2022-09-09T00:47:59.337Z,99440.00
2022-09-09T00:48:12.555Z,99442.00
2022-09-09T00:48:25.754Z,99440.00
2022-09-09T00:48:36.556Z,99437.00
2022-09-09T00:48:49.795Z,99439.00
2022-09-09T00:49:03.577Z,99439.00
2022-09-09T00:49:16.805Z,99439.00
2022-09-09T00:49:29.254Z,99440.00
2022-09-09T00:49:40.957Z,99440.00
2022-09-09T00:49:51.704Z,99442.00
2022-09-09T00:50:02.494Z,99442.00
2022-09-09T00:50:13.235Z,99442.00
2022-09-09T00:50:25.668Z,99438.00
2022-09-09T00:50:37.426Z,99439.00
2022-09-09T00:50:50.444Z,99440.00
2022-09-09T00:51:01.172Z,99443.00
2022-09-09T00:51:14.866Z,99440.00
2022-09-09T00:51:25.644Z,99438.00
2022-09-09T00:51:36.416Z,99442.00
2022-09-09T00:51:47.197Z,99437.00
2022-09-09T00:51:59.656Z,99434.00
2022-09-09T00:52:11.869Z,99435.00
2022-09-09T00:52:23.588Z,99439.00
2022-09-09T00:52:35.335Z,99436.00
2022-09-09T00:52:47.816Z,99439.00
2022-09-09T00:52:58.558Z,99444.00
2022-09-09T00:53:10.766Z,99443.00
2022-09-09T00:53:23.235Z,99438.00
2022-09-09T00:53:34.957Z,99442.00
2022-09-09T00:53:47.396Z,99442.00
2022-09-09T00:53:59.126Z,99438.00
2022-09-09T00:54:09.902Z,99441.00
2022-09-09T00:54:20.666Z,99441.00
2022-09-09T00:54:32.876Z,99438.00
2022-09-09T00:54:44.606Z,99440.00
2022-09-09T00:54:56.346Z,99442.00
2022-09-09T00:55:08.547Z,99442.00
2022-09-09T00:55:19.355Z,99443.00
2022-09-09T00:55:31.749Z,99445.00
2022-09-09T00:55:42.486Z,99450.00
2022-09-09T00:55:54.176Z,99447.00
2022-09-09T00:56:05.157Z,99445.00
2022-09-09T00:56:15.908Z,99442.00
2022-09-09T00:56:26.673Z,99440.00
2022-09-09T00:56:39.077Z,99446.00
2022-09-09T00:56:51.287Z,99444.00
2022-09-09T00:57:02.070Z,99444.00
2022-09-09T00:57:12.826Z,99447.00
2022-09-09T00:57:23.577Z,99448.00
2022-09-09T00:57:35.410Z,99449.00
2022-09-09T00:57:46.157Z,99447.00
2022-09-09T00:57:57.858Z,99449.00
2022-09-09T00:58:10.571Z,99449.00
2022-09-09T00:58:23.020Z,99448.00
2022-09-09T00:58:33.836Z,99451.00
2022-09-09T00:58:48.097Z,99451.00
2022-09-09T00:58:58.896Z,99455.00
2022-09-09T00:59:09.700Z,99448.00
2022-09-09T00:59:26.583Z,99452.00
2022-09-09T00:59:39.569Z,99451.00
2022-09-09T00:59:51.288Z,99451.00
2022-09-09T01:00:02.081Z,99450.00
2022-09-09T01:00:12.841Z,99449.00
2022-09-09T01:00:23.599Z,99450.00
2022-09-09T01:00:36.039Z,99451.00
2022-09-09T01:00:46.808Z,99452.00
2022-09-09T01:00:58.497Z,99451.00
2022-09-09T01:01:10.304Z,99449.00
2022-09-09T01:01:23.582Z,99447.00
2022-09-09T01:01:36.396Z,99450.00
2022-09-09T01:01:47.307Z,99450.00
2022-09-09T01:01:58.196Z,99452.00
2022-09-09T01:02:09.090Z,99448.00
2022-09-09T01:02:19.838Z,99449.00
2022-09-09T01:02:31.631Z,99450.00
2022-09-09T01:02:42.426Z,99450.00
2022-09-09T01:02:53.258Z,99452.00
2022-09-09T01:03:05.736Z,99450.00
2022-09-09T01:03:18.181Z,99450.00
2022-09-09T01:03:28.930Z,99453.00
2022-09-09T01:03:41.379Z,99453.00
2022-09-09T01:03:52.141Z,99449.00
2022-09-09T01:04:04.611Z,99451.00
2022-09-09T01:04:15.418Z,99449.00
2022-09-09T01:04:27.130Z,99448.00
2022-09-09T01:04:38.824Z,99449.00
2022-09-09T01:04:52.031Z,99452.00
2022-09-09T01:05:03.730Z,99448.00
2022-09-09T01:05:14.489Z,99451.00
2022-09-09T01:05:26.951Z,99452.00
2022-09-09T01:05:38.890Z,99451.00
2022-09-09T01:05:49.639Z,99452.00
2022-09-09T01:06:00.379Z,99450.00
2022-09-09T01:06:11.130Z,99452.00
2022-09-09T01:06:21.929Z,99453.00
2022-09-09T01:06:33.651Z,99451.00
2022-09-09T01:06:44.422Z,99451.00
2022-09-09T01:06:56.839Z,99451.00
2022-09-09T01:07:09.321Z,99454.00
2022-09-09T01:07:21.771Z,99452.00
2022-09-09T01:07:32.601Z,99450.00
2022-09-09T01:07:43.401Z,99455.00
2022-09-09T01:07:58.369Z,99456.00
2022-09-09T01:08:09.292Z,99453.00
2022-09-09T01:08:20.063Z,99451.00
2022-09-09T01:08:32.310Z,99452.00
2022-09-09T01:08:43.031Z,99455.00
2022-09-09T01:08:53.781Z,99454.00
2022-09-09T01:09:06.010Z,99460.00
2022-09-09T01:09:16.761Z,99456.00
2022-09-09T01:09:28.461Z,99458.00
2022-09-09T01:09:41.671Z,99456.00
2022-09-09T01:09:52.422Z,99459.00
2022-09-09T01:10:04.181Z,99460.00
2022-09-09T01:10:17.381Z,99460.00
2022-09-09T01:10:28.152Z,99459.00
2022-09-09T01:10:41.909Z,99459.00
2022-09-09T01:10:54.382Z,99457.00
2022-09-09T01:11:05.113Z,99457.00
2022-09-09T01:11:15.881Z,99457.00
2022-09-09T01:11:29.095Z,99461.00
2022-09-09T01:11:39.860Z,99456.00
2022-09-09T01:11:50.612Z,99458.00
2022-09-09T01:12:02.365Z,99459.00
2022-09-09T01:12:13.165Z,99458.00
2022-09-09T01:12:23.933Z,99457.00
2022-09-09T01:12:35.682Z,99459.00
2022-09-09T01:12:48.135Z,99460.00
2022-09-09T01:12:58.882Z,99461.00
2022-09-09T01:13:11.132Z,99459.00
2022-09-09T01:13:21.870Z,99458.00
2022-09-09T01:13:32.643Z,99460.00
2022-09-09T01:13:43.410Z,99457.00
2022-09-09T01:13:54.183Z,99461.00
2022-09-09T01:14:06.668Z,99462.00
2022-09-09T01:14:19.113Z,99460.00
2022-09-09T01:14:29.873Z,99464.00
2022-09-09T01:14:40.606Z,99462.00
2022-09-09T01:14:51.373Z,99463.00
2022-09-09T01:15:03.784Z,99463.00
2022-09-09T01:15:15.973Z,99461.00
2022-09-09T01:15:26.764Z,99462.00
2022-09-09T01:15:39.217Z,99464.00
2022-09-09T01:15:50.913Z,99469.00
2022-09-09T01:16:02.125Z,99468.00
2022-09-09T01:16:13.025Z,99469.00
2022-09-09T01:16:23.822Z,99469.00
2022-09-09T01:16:34.588Z,99468.00
2022-09-09T01:16:45.364Z,99471.00
2022-09-09T01:16:56.150Z,99471.00
2022-09-09T01:17:08.584Z,99468.00
2022-09-09T01:17:22.484Z,99467.00
2022-09-09T01:17:33.284Z,99469.00
2022-09-09T01:17:44.994Z,99469.00
2022-09-09T01:17:56.715Z,99469.00
2022-09-09T01:18:08.480Z,99465.00
2022-09-09T01:18:22.184Z,99466.00
2022-09-09T01:18:34.165Z,99469.00
2022-09-09T01:18:45.144Z,99467.00
2022-09-09T01:18:55.954Z,99471.00
2022-09-09T01:19:07.621Z,99469.00
2022-09-09T01:19:20.824Z,99470.00
2022-09-09T01:19:32.525Z,99466.00
2022-09-09T01:19:44.294Z,99470.00
2022-09-09T01:19:57.485Z,99468.00
2022-09-09T01:20:09.195Z,99467.00
2022-09-09T01:20:20.924Z,99466.00
2022-09-09T01:20:33.635Z,99466.00
2022-09-09T01:20:45.168Z,99465.00
2022-09-09T01:20:55.935Z,99464.00
2022-09-09T01:21:07.665Z,99463.00
2022-09-09T01:21:19.386Z,99467.00
2022-09-09T01:21:30.117Z,99464.00
2022-09-09T01:21:41.879Z,99464.00
2022-09-09T01:21:54.066Z,99464.00
2022-09-09T01:22:04.855Z,99463.00
2022-09-09T01:22:17.376Z,99463.00
2022-09-09T01:22:29.597Z,99461.00
2022-09-09T01:22:41.917Z,99464.00
2022-09-09T01:22:54.346Z,99465.00
2022-09-09T01:23:06.789Z,99463.00
2022-09-09T01:23:17.585Z,99466.00
2022-09-09T01:23:28.326Z,99465.00
2022-09-09T01:23:39.106Z,99465.00
2022-09-09T01:23:51.806Z,99467.00
2022-09-09T01:24:02.579Z,99466.00
2022-09-09T01:24:13.346Z,99468.00
2022-09-09T01:24:24.085Z,99465.00
2022-09-09T01:24:35.808Z,99464.00
2022-09-09T01:24:46.575Z,99465.00
2022-09-09T01:24:57.316Z,99465.00
2022-09-09T01:25:08.046Z,99467.00
2022-09-09T01:25:18.882Z,99463.00
2022-09-09T01:25:29.619Z,99464.00
2022-09-09T01:25:42.055Z,99464.00
2022-09-09T01:25:53.796Z,99463.00
2022-09-09T01:26:06.419Z,99467.00
2022-09-09T01:26:19.127Z,99469.00
2022-09-09T01:26:29.876Z,99468.00
2022-09-09T01:26:42.580Z,99469.00
2022-09-09T01:26:54.278Z,99469.00
2022-09-09T01:27:05.979Z,99469.00
2022-09-09T01:27:18.410Z,99465.00
2022-09-09T01:27:30.918Z,99471.00
2022-09-09T01:27:43.367Z,99470.00
2022-09-09T01:27:55.088Z,99465.00
2022-09-09T01:28:05.879Z,99466.00
2022-09-09T01:28:16.679Z,99467.00
2022-09-09T01:28:27.456Z,99466.00
2022-09-09T01:28:38.230Z,99462.00
2022-09-09T01:28:48.966Z,99464.00
2022-09-09T01:29:02.158Z,99466.00
2022-09-09T01:29:14.743Z,99464.00
2022-09-09T01:29:26.440Z,99467.00
2022-09-09T01:29:38.890Z,99464.00
2022-09-09T01:29:51.317Z,99465.00
2022-09-09T01:30:02.087Z,99466.00
2022-09-09T01:30:13.809Z,99466.00
2022-09-09T01:30:24.629Z,99467.00
2022-09-09T01:30:37.099Z,99463.00
2022-09-09T01:30:47.900Z,99463.00
2022-09-09T01:30:58.740Z,99464.00
2022-09-09T01:31:10.519Z,99465.00
2022-09-09T01:31:23.251Z,99465.00
2022-09-09T01:31:34.218Z,99462.00
2022-09-09T01:31:45.899Z,99466.00
2022-09-09T01:31:56.667Z,99463.00
2022-09-09T01:32:09.608Z,99462.00
2022-09-09T01:32:22.019Z,99466.00
2022-09-09T01:32:33.749Z,99465.00
2022-09-09T01:32:45.962Z,99462.00
2022-09-09T01:32:57.669Z,99462.00
2022-09-09T01:33:10.119Z,99465.00
2022-09-09T01:33:22.070Z,99458.00
2022-09-09T01:33:32.821Z,99460.00
2022-09-09T01:33:43.560Z,99460.00
2022-09-09T01:33:54.351Z,99461.00
2022-09-09T01:34:08.082Z,99466.00
2022-09-09T01:34:18.839Z,99465.00
2022-09-09T01:34:29.610Z,99465.00
2022-09-09T01:34:40.391Z,99463.00
2022-09-09T01:34:51.130Z,99465.00
2022-09-09T01:35:01.878Z,99465.00
2022-09-09T01:35:14.342Z,99465.00
2022-09-09T01:35:26.765Z,99460.00
2022-09-09T01:35:40.520Z,99462.00
2022-09-09T01:35:52.230Z,99463.00
2022-09-09T01:36:02.972Z,99467.00
2022-09-09T01:36:14.922Z,99466.00
2022-09-09T01:36:25.668Z,99467.00
2022-09-09T01:36:37.399Z,99464.00
2022-09-09T01:36:48.130Z,99464.00
2022-09-09T01:36:58.861Z,99465.00
2022-09-09T01:37:09.620Z,99466.00
2022-09-09T01:37:20.480Z,99467.00
2022-09-09T01:37:32.211Z,99466.00
2022-09-09T01:37:42.940Z,99464.00
2022-09-09T01:37:53.720Z,99466.00
2022-09-09T01:38:06.214Z,99465.00
2022-09-09T01:38:16.982Z,99469.00
2022-09-09T01:38:30.691Z,99469.00
2022-09-09T01:38:41.471Z,99473.00
2022-09-09T01:38:53.671Z,99469.00
2022-09-09T01:39:06.880Z,99470.00
2022-09-09T01:39:17.661Z,99468.00
2022-09-09T01:39:29.495Z,99472.00
2022-09-09T01:39:41.313Z,99471.00
2022-09-09T01:39:53.679Z,99470.00
2022-09-09T01:40:05.822Z,99471.00
2022-09-09T01:40:17.581Z,99470.00
2022-09-09T01:40:28.393Z,99471.00
2022-09-09T01:40:40.105Z,99471.00
2022-09-09T01:40:50.863Z,99470.00
2022-09-09T01:41:03.842Z,99471.00
2022-09-09T01:41:16.042Z,99472.00
2022-09-09T01:41:27.755Z,99473.00
2022-09-09T01:41:40.002Z,99473.00
2022-09-09T01:41:52.272Z,99471.00
2022-09-09T01:42:03.033Z,99472.00
2022-09-09T01:42:13.822Z,99473.00
2022-09-09T01:42:24.596Z,99474.00
2022-09-09T01:42:35.603Z,99476.00
2022-09-09T01:42:47.302Z,99473.00
2022-09-09T01:42:58.052Z,99476.00
2022-09-09T01:43:10.164Z,99471.00
2022-09-09T01:43:20.922Z,99470.00
2022-09-09T01:43:31.663Z,99470.00
2022-09-09T01:43:42.683Z,99472.00
2022-09-09T01:43:54.882Z,99470.00
2022-09-09T01:44:05.652Z,99475.00
2022-09-09T01:44:18.865Z,99473.00
2022-09-09T01:44:29.641Z,99473.00
2022-09-09T01:44:40.414Z,99473.00
2022-09-09T01:44:51.173Z,99470.00
2022-09-09T01:45:01.915Z,99468.00
2022-09-09T01:45:12.723Z,99467.00
2022-09-09T01:45:23.452Z,99469.00
2022-09-09T01:45:34.233Z,99472.00
2022-09-09T01:45:45.090Z,99471.00
2022-09-09T01:45:55.892Z,99471.00
2022-09-09T01:46:08.350Z,99473.00
2022-09-09T01:46:19.184Z,99472.00
2022-09-09T01:46:32.385Z,99472.00
2022-09-09T01:46:43.151Z,99471.00
2022-09-09T01:46:55.348Z,99471.00
2022-09-09T01:47:06.124Z,99468.00
2022-09-09T01:47:18.565Z,99470.00
2022-09-09T01:47:30.055Z,99468.00
2022-09-09T01:47:41.774Z,99468.00
2022-09-09T01:47:52.542Z,99468.00
2022-09-09T01:48:04.267Z,99468.00
2022-09-09T01:48:17.255Z,99468.00
2022-09-09T01:48:30.022Z,99467.00
2022-09-09T01:48:40.744Z,99466.00
2022-09-09T01:48:51.514Z,99462.00
2022-09-09T01:49:03.244Z,99465.00
2022-09-09T01:49:15.444Z,99464.00
2022-09-09T01:49:27.158Z,99463.00
2022-09-09T01:49:38.894Z,99467.00
2022-09-09T01:49:49.675Z,99467.00
2022-09-09T01:50:01.397Z,99466.00
2022-09-09T01:50:13.586Z,99463.00
2022-09-09T01:50:26.145Z,99466.00
2022-09-09T01:50:38.604Z,99465.00
2022-09-09T01:50:49.352Z,99463.00
2022-09-09T01:51:01.548Z,99460.00
2022-09-09T01:51:12.303Z,99460.00
2022-09-09T01:51:24.743Z,99461.00
2022-09-09T01:51:36.435Z,99463.00
2022-09-09T01:51:47.176Z,99463.00
2022-09-09T01:51:57.905Z,99465.00
2022-09-09T01:52:11.112Z,99464.00
2022-09-09T01:52:21.955Z,99463.00
2022-09-09T01:52:32.970Z,99462.00
2022-09-09T01:52:45.447Z,99464.00
2022-09-09T01:52:57.168Z,99464.00
2022-09-09T01:53:07.928Z,99467.00
2022-09-09T01:53:20.139Z,99464.00
2022-09-09T01:53:31.836Z,99462.00
2022-09-09T01:53:43.569Z,99457.00
2022-09-09T01:53:55.977Z,99459.00
2022-09-09T01:54:07.687Z,99459.00
2022-09-09T01:54:20.180Z,99460.00
2022-09-09T01:54:30.946Z,99461.00
2022-09-09T01:54:43.157Z,99462.00
2022-09-09T01:54:54.868Z,99458.00
2022-09-09T01:55:05.646Z,99463.00
2022-09-09T01:55:18.567Z,99460.00
2022-09-09T01:55:29.336Z,99462.00
2022-09-09T01:55:41.027Z,99462.00
2022-09-09T01:55:51.817Z,99459.00
2022-09-09T01:56:02.608Z,99464.00
2022-09-09T01:56:13.377Z,99462.00
2022-09-09T01:56:25.827Z,99461.00
2022-09-09T01:56:36.607Z,99462.00
2022-09-09T01:56:47.357Z,99466.00
2022-09-09T01:56:58.087Z,99463.00
2022-09-09T01:57:08.877Z,99460.00
2022-09-09T01:57:19.637Z,99462.00
2022-09-09T01:57:32.618Z,99464.00
2022-09-09T01:57:44.358Z,99463.00
2022-09-09T01:57:55.127Z,99462.00
2022-09-09T01:58:05.927Z,99463.00
2022-09-09T01:58:18.380Z,99461.00
2022-09-09T01:58:29.226Z,99462.00
2022-09-09T01:58:40.971Z,99462.00
2022-09-09T01:58:51.759Z,99464.00
2022-09-09T01:59:04.168Z,99462.00
2022-09-09T01:59:15.949Z,99460.00
2022-09-09T01:59:26.699Z,99462.00
2022-09-09T01:59:39.909Z,99463.00
2022-09-09T01:59:50.669Z,99462.00
2022-09-09T02:00:01.500Z,99460.00
2022-09-09T02:00:12.257Z,99461.00
2022-09-09T02:00:24.685Z,99461.00
2022-09-09T02:00:37.128Z,99463.00
2022-09-09T02:00:48.922Z,99461.00
2022-09-09T02:01:01.976Z,99462.00
2022-09-09T02:01:14.470Z,99457.00
2022-09-09T02:01:26.238Z,99460.00
2022-09-09T02:01:39.535Z,99462.00
2022-09-09T02:01:51.969Z,99463.00
2022-09-09T02:02:02.828Z,99461.00
2022-09-09T02:02:13.612Z,99461.00
2022-09-09T02:02:25.371Z,99461.00
2022-09-09T02:02:37.836Z,99461.00
2022-09-09T02:02:49.649Z,99460.00
2022-09-09T02:03:02.833Z,99461.00
2022-09-09T02:03:13.619Z,99461.00
2022-09-09T02:03:25.819Z,99460.00
2022-09-09T02:03:36.563Z,99458.00
2022-09-09T02:03:47.299Z,99458.00
2022-09-09T02:03:58.029Z,99459.00
2022-09-09T02:04:10.751Z,99460.00
2022-09-09T02:04:21.498Z,99461.00
2022-09-09T02:04:33.965Z,99460.00
2022-09-09T02:04:44.719Z,99462.00
2022-09-09T02:04:56.452Z,99462.00
2022-09-09T02:05:08.151Z,99459.00
2022-09-09T02:05:22.374Z,99460.00
2022-09-09T02:05:33.110Z,99460.00
2022-09-09T02:05:44.820Z,99458.00
2022-09-09T02:05:56.555Z,99461.00
2022-09-09T02:06:09.001Z,99462.00
2022-09-09T02:06:19.780Z,99459.00
2022-09-09T02:06:30.531Z,99464.00
2022-09-09T02:06:41.290Z,99463.00
2022-09-09T02:06:52.050Z,99465.00
2022-09-09T02:07:02.791Z,99463.00
2022-09-09T02:07:15.740Z,99465.00
2022-09-09T02:07:27.440Z,99462.00
2022-09-09T02:07:38.181Z,99462.00
2022-09-09T02:07:48.929Z,99461.00
2022-09-09T02:08:00.640Z,99463.00
2022-09-09T02:08:11.393Z,99462.00
2022-09-09T02:08:23.880Z,99465.00
2022-09-09T02:08:35.671Z,99463.00
2022-09-09T02:08:46.429Z,99462.00
2022-09-09T02:08:58.861Z,99465.00
2022-09-09T02:09:11.301Z,99462.00
2022-09-09T02:09:22.062Z,99463.00
2022-09-09T02:09:32.831Z,99464.00
2022-09-09T02:09:44.571Z,99465.00
2022-09-09T02:09:57.031Z,99464.00
2022-09-09T02:10:09.752Z,99463.00
2022-09-09T02:10:20.522Z,99464.00
2022-09-09T02:10:32.992Z,99462.00
2022-09-09T02:10:44.724Z,99465.00
2022-09-09T02:10:57.152Z,99465.00
2022-09-09T02:11:07.964Z,99461.00
2022-09-09T02:11:20.429Z,99461.00
2022-09-09T02:11:32.322Z,99463.00
2022-09-09T02:11:44.771Z,99462.00
2022-09-09T02:11:57.193Z,99463.00
2022-09-09T02:12:07.944Z,99457.00
2022-09-09T02:12:20.143Z,99459.00
2022-09-09T02:12:30.882Z,99460.00
2022-09-09T02:12:43.304Z,99457.00
2022-09-09T02:12:55.720Z,99458.00
2022-09-09T02:13:06.454Z,99459.00
2022-09-09T02:13:19.163Z,99458.00
2022-09-09T02:13:31.413Z,99455.00
2022-09-09T02:13:43.887Z,99455.00
2022-09-09T02:13:54.604Z,99457.00
2022-09-09T02:14:05.362Z,99458.00
2022-09-09T02:14:18.580Z,99456.00
2022-09-09T02:14:29.373Z,99457.00
2022-09-09T02:14:41.083Z,99457.00
2022-09-09T02:14:51.823Z,99461.00
2022-09-09T02:15:04.542Z,99461.00
2022-09-09T02:15:15.276Z,99457.00
2022-09-09T02:15:27.513Z,99462.00
2022-09-09T02:15:38.291Z,99459.00
2022-09-09T02:15:49.043Z,99458.00
2022-09-09T02:16:00.814Z,99462.00
2022-09-09T02:16:11.664Z,99459.00